Florence, Kentucky
Current Conditions -  °F | °C
As of 6:52 AM on Thursday 23 Oct 2014 (Local Time) from KCVG Reporting Station
Clear Clear  
Wind Chill: 42°   Ceiling: Unl
Heat Index: 42°   Visibility: 7mi
Dew Point: 37°   Wind: 0mph
Humidity: 82%   Direction: NA
Pressure: 30.25"   Gusts: NA
Location:  39°N, 84.63°W
Report Text: KCVG 231052Z 00000KT 7SM CLR 06/03 A3025 RMK AO2 SLP244 PTCHY MIFG S SW T00560028
Loading
Personal Weather Stations






























Interactive Weather Map New forecast layout! Learn more

10-Day Weather Forecast

Advertisements
Track Severe Weather on mobile